sensor_id;sensor_type;location;lat;lon;timestamp;temperature;humidity
4201;DHT22;2114;50.398;8.814;2022-08-01T00:00:29;22.80;98.40
4201;DHT22;2114;50.398;8.814;2022-08-01T00:05:30;22.80;99.40
4201;DHT22;2114;50.398;8.814;2022-08-01T00:10:31;22.70;99.90
4201;DHT22;2114;50.398;8.814;2022-08-01T00:15:31;22.60;99.90
4201;DHT22;2114;50.398;8.814;2022-08-01T00:20:32;22.60;99.90
4201;DHT22;2114;50.398;8.814;2022-08-01T00:25:33;22.50;99.90
4201;DHT22;2114;50.398;8.814;2022-08-01T00:30:34;22.40;99.90
4201;DHT22;2114;50.398;8.814;2022-08-01T00:35:35;22.40;99.90
4201;DHT22;2114;50.398;8.814;2022-08-01T00:40:35;22.40;99.90
4201;DHT22;2114;50.398;8.814;2022-08-01T00:45:36;22.40;99.90
4201;DHT22;2114;50.398;8.814;2022-08-01T00:50:37;22.30;99.90
4201;DHT22;2114;50.398;8.814;2022-08-01T00:55:38;22.20;99.90
4201;DHT22;2114;50.398;8.814;2022-08-01T01:00:39;22.10;99.90
4201;DHT22;2114;50.398;8.814;2022-08-01T01:06:05;22.10;99.90
4201;DHT22;2114;50.398;8.814;2022-08-01T01:11:16;22.10;99.90
4201;DHT22;2114;50.398;8.814;2022-08-01T01:16:20;22.10;99.90
4201;DHT22;2114;50.398;8.814;2022-08-01T01:21:26;22.00;99.90
4201;DHT22;2114;50.398;8.814;2022-08-01T01:32:04;21.90;99.90
4201;DHT22;2114;50.398;8.814;2022-08-01T01:37:09;21.90;99.90
4201;DHT22;2114;50.398;8.814;2022-08-01T01:42:11;21.90;99.90
4201;DHT22;2114;50.398;8.814;2022-08-01T01:47:13;21.90;99.90
4201;DHT22;2114;50.398;8.814;2022-08-01T01:52:16;21.90;99.90
4201;DHT22;2114;50.398;8.814;2022-08-01T01:57:18;21.90;99.90
4201;DHT22;2114;50.398;8.814;2022-08-01T02:02:22;21.90;99.90
4201;DHT22;2114;50.398;8.814;2022-08-01T02:07:25;21.80;99.90
4201;DHT22;2114;50.398;8.814;2022-08-01T02:12:26;21.80;99.90
4201;DHT22;2114;50.398;8.814;2022-08-01T02:17:29;21.80;99.90
4201;DHT22;2114;50.398;8.814;2022-08-01T02:22:40;21.80;99.90
4201;DHT22;2114;50.398;8.814;2022-08-01T02:27:52;21.80;99.90
4201;DHT22;2114;50.398;8.814;2022-08-01T02:33:00;21.80;99.90
4201;DHT22;2114;50.398;8.814;2022-08-01T02:38:05;21.80;99.90
4201;DHT22;2114;50.398;8.814;2022-08-01T02:43:08;21.90;99.90
4201;DHT22;2114;50.398;8.814;2022-08-01T02:48:11;22.10;99.90
4201;DHT22;2114;50.398;8.814;2022-08-01T02:53:13;22.10;99.90
4201;DHT22;2114;50.398;8.814;2022-08-01T02:58:16;22.10;99.90
4201;DHT22;2114;50.398;8.814;2022-08-01T03:03:19;22.10;99.90
4201;DHT22;2114;50.398;8.814;2022-08-01T03:08:21;22.10;99.90
4201;DHT22;2114;50.398;8.814;2022-08-01T03:13:23;22.20;99.90
4201;DHT22;2114;50.398;8.814;2022-08-01T03:18:25;22.30;99.90
4201;DHT22;2114;50.398;8.814;2022-08-01T03:23:27;22.20;99.90
4201;DHT22;2114;50.398;8.814;2022-08-01T03:28:29;22.10;99.90
4201;DHT22;2114;50.398;8.814;2022-08-01T03:33:31;21.90;99.90
4201;DHT22;2114;50.398;8.814;2022-08-01T03:38:36;21.90;99.90
4201;DHT22;2114;50.398;8.814;2022-08-01T03:48:50;21.80;99.90
4201;DHT22;2114;50.398;8.814;2022-08-01T03:53:54;21.80;99.90
4201;DHT22;2114;50.398;8.814;2022-08-01T03:58:56;21.80;99.90
4201;DHT22;2114;50.398;8.814;2022-08-01T04:03:59;21.70;99.90
4201;DHT22;2114;50.398;8.814;2022-08-01T04:09:00;21.70;99.90
4201;DHT22;2114;50.398;8.814;2022-08-01T04:14:01;21.60;99.90
4201;DHT22;2114;50.398;8.814;2022-08-01T04:19:02;21.60;99.90
4201;DHT22;2114;50.398;8.814;2022-08-01T04:24:17;21.60;99.90
4201;DHT22;2114;50.398;8.814;2022-08-01T04:29:20;21.60;99.90
4201;DHT22;2114;50.398;8.814;2022-08-01T04:34:23;21.60;99.90
4201;DHT22;2114;50.398;8.814;2022-08-01T04:39:25;21.60;99.90
4201;DHT22;2114;50.398;8.814;2022-08-01T04:44:27;21.60;99.90
4201;DHT22;2114;50.398;8.814;2022-08-01T04:49:30;21.60;99.90
4201;DHT22;2114;50.398;8.814;2022-08-01T04:54:33;21.60;99.90
4201;DHT22;2114;50.398;8.814;2022-08-01T04:59:38;21.70;99.90
4201;DHT22;2114;50.398;8.814;2022-08-01T05:04:41;21.70;99.90
4201;DHT22;2114;50.398;8.814;2022-08-01T05:09:42;21.60;99.90
4201;DHT22;2114;50.398;8.814;2022-08-01T05:14:43;21.70;99.90
4201;DHT22;2114;50.398;8.814;2022-08-01T05:19:43;21.70;99.90
4201;DHT22;2114;50.398;8.814;2022-08-01T05:24:44;21.70;99.90
4201;DHT22;2114;50.398;8.814;2022-08-01T05:29:44;21.70;99.90
4201;DHT22;2114;50.398;8.814;2022-08-01T05:34:45;21.80;99.90
4201;DHT22;2114;50.398;8.814;2022-08-01T05:39:46;21.80;99.90
4201;DHT22;2114;50.398;8.814;2022-08-01T05:44:46;21.90;99.90
4201;DHT22;2114;50.398;8.814;2022-08-01T05:49:47;22.00;99.90
4201;DHT22;2114;50.398;8.814;2022-08-01T05:54:48;22.20;99.90
4201;DHT22;2114;50.398;8.814;2022-08-01T05:59:48;22.30;99.90
4201;DHT22;2114;50.398;8.814;2022-08-01T06:04:49;22.40;99.90
4201;DHT22;2114;50.398;8.814;2022-08-01T06:09:49;22.50;99.90
4201;DHT22;2114;50.398;8.814;2022-08-01T06:14:50;22.50;99.90
4201;DHT22;2114;50.398;8.814;2022-08-01T06:19:50;22.70;99.90
4201;DHT22;2114;50.398;8.814;2022-08-01T06:24:51;22.80;99.90
4201;DHT22;2114;50.398;8.814;2022-08-01T06:29:52;22.90;99.90
4201;DHT22;2114;50.398;8.814;2022-08-01T06:34:57;23.10;99.90
4201;DHT22;2114;50.398;8.814;2022-08-01T06:40:05;23.20;99.90
4201;DHT22;2114;50.398;8.814;2022-08-01T06:45:08;23.30;99.90
4201;DHT22;2114;50.398;8.814;2022-08-01T06:50:10;23.30;99.90
4201;DHT22;2114;50.398;8.814;2022-08-01T06:55:11;23.30;99.90
4201;DHT22;2114;50.398;8.814;2022-08-01T07:00:14;23.30;99.90
4201;DHT22;2114;50.398;8.814;2022-08-01T07:05:16;23.30;99.90
4201;DHT22;2114;50.398;8.814;2022-08-01T07:10:17;23.40;99.90
4201;DHT22;2114;50.398;8.814;2022-08-01T07:15:17;23.50;99.90
4201;DHT22;2114;50.398;8.814;2022-08-01T07:20:20;23.60;99.90
4201;DHT22;2114;50.398;8.814;2022-08-01T07:25:21;23.90;99.90
4201;DHT22;2114;50.398;8.814;2022-08-01T07:30:22;24.20;99.90
4201;DHT22;2114;50.398;8.814;2022-08-01T07:35:22;24.40;99.90
4201;DHT22;2114;50.398;8.814;2022-08-01T07:40:23;24.50;99.90
4201;DHT22;2114;50.398;8.814;2022-08-01T07:45:24;24.60;99.90
4201;DHT22;2114;50.398;8.814;2022-08-01T07:50:24;24.70;99.90
4201;DHT22;2114;50.398;8.814;2022-08-01T07:55:25;24.70;99.90
4201;DHT22;2114;50.398;8.814;2022-08-01T08:00:25;24.90;99.90
4201;DHT22;2114;50.398;8.814;2022-08-01T08:05:27;25.00;99.90
4201;DHT22;2114;50.398;8.814;2022-08-01T08:10:28;25.20;99.90
4201;DHT22;2114;50.398;8.814;2022-08-01T08:15:29;25.40;99.90
4201;DHT22;2114;50.398;8.814;2022-08-01T08:20:29;25.60;99.90
4201;DHT22;2114;50.398;8.814;2022-08-01T08:25:30;25.80;99.90
4201;DHT22;2114;50.398;8.814;2022-08-01T08:30:31;26.00;99.90
4201;DHT22;2114;50.398;8.814;2022-08-01T08:35:31;26.20;99.90
4201;DHT22;2114;50.398;8.814;2022-08-01T08:40:35;26.40;99.90
4201;DHT22;2114;50.398;8.814;2022-08-01T08:45:37;26.50;99.90
4201;DHT22;2114;50.398;8.814;2022-08-01T08:50:38;26.50;99.90
4201;DHT22;2114;50.398;8.814;2022-08-01T08:55:39;26.70;99.90
4201;DHT22;2114;50.398;8.814;2022-08-01T09:00:43;26.80;99.90
4201;DHT22;2114;50.398;8.814;2022-08-01T09:05:43;27.20;99.90
4201;DHT22;2114;50.398;8.814;2022-08-01T09:10:44;27.80;99.90
4201;DHT22;2114;50.398;8.814;2022-08-01T09:15:48;28.20;99.90
4201;DHT22;2114;50.398;8.814;2022-08-01T09:20:50;28.70;98.90
4201;DHT22;2114;50.398;8.814;2022-08-01T09:25:51;29.10;97.00
4201;DHT22;2114;50.398;8.814;2022-08-01T09:30:53;29.20;96.60
4201;DHT22;2114;50.398;8.814;2022-08-01T09:35:56;29.50;97.50
4201;DHT22;2114;50.398;8.814;2022-08-01T09:41:00;30.00;95.40
4201;DHT22;2114;50.398;8.814;2022-08-01T09:46:10;30.20;94.80
4201;DHT22;2114;50.398;8.814;2022-08-01T09:56:38;30.50;93.80
4201;DHT22;2114;50.398;8.814;2022-08-01T10:01:48;30.50;93.80
4201;DHT22;2114;50.398;8.814;2022-08-01T10:06:50;30.90;92.40
4201;DHT22;2114;50.398;8.814;2022-08-01T10:11:55;31.30;91.10
4201;DHT22;2114;50.398;8.814;2022-08-01T10:16:58;32.10;90.90
4201;DHT22;2114;50.398;8.814;2022-08-01T10:21:58;32.80;86.00
4201;DHT22;2114;50.398;8.814;2022-08-01T10:27:05;32.80;83.60
4201;DHT22;2114;50.398;8.814;2022-08-01T10:32:07;32.60;82.00
4201;DHT22;2114;50.398;8.814;2022-08-01T10:37:09;32.30;81.50
4201;DHT22;2114;50.398;8.814;2022-08-01T10:42:11;32.50;80.00
4201;DHT22;2114;50.398;8.814;2022-08-01T10:47:14;32.30;79.80
4201;DHT22;2114;50.398;8.814;2022-08-01T10:52:19;32.40;79.00
4201;DHT22;2114;50.398;8.814;2022-08-01T10:57:21;32.80;80.80
4201;DHT22;2114;50.398;8.814;2022-08-01T11:02:30;33.10;77.10
4201;DHT22;2114;50.398;8.814;2022-08-01T11:07:52;32.90;76.00
4201;DHT22;2114;50.398;8.814;2022-08-01T11:12:53;33.20;76.90
4201;DHT22;2114;50.398;8.814;2022-08-01T11:17:54;33.60;79.30
4201;DHT22;2114;50.398;8.814;2022-08-01T11:33:19;36.10;70.50
4201;DHT22;2114;50.398;8.814;2022-08-01T11:38:41;36.00;71.10
4201;DHT22;2114;50.398;8.814;2022-08-01T11:44:03;36.80;65.90
4201;DHT22;2114;50.398;8.814;2022-08-01T11:49:33;37.20;63.80
4201;DHT22;2114;50.398;8.814;2022-08-01T11:54:44;37.30;64.40
4201;DHT22;2114;50.398;8.814;2022-08-01T11:59:48;37.70;62.60
4201;DHT22;2114;50.398;8.814;2022-08-01T12:10:12;38.30;60.50
4201;DHT22;2114;50.398;8.814;2022-08-01T12:15:13;38.30;59.20
4201;DHT22;2114;50.398;8.814;2022-08-01T12:20:21;37.80;58.40
4201;DHT22;2114;50.398;8.814;2022-08-01T12:25:22;36.80;59.10
4201;DHT22;2114;50.398;8.814;2022-08-01T12:30:23;35.80;59.20
4201;DHT22;2114;50.398;8.814;2022-08-01T12:35:26;34.80;60.70
4201;DHT22;2114;50.398;8.814;2022-08-01T12:40:30;34.50;62.90
4201;DHT22;2114;50.398;8.814;2022-08-01T12:45:37;34.60;63.80
4201;DHT22;2114;50.398;8.814;2022-08-01T12:50:43;35.30;63.90
4201;DHT22;2114;50.398;8.814;2022-08-01T12:55:48;36.40;63.00
4201;DHT22;2114;50.398;8.814;2022-08-01T13:00:50;37.40;59.10
4201;DHT22;2114;50.398;8.814;2022-08-01T13:06:10;37.90;57.40
4201;DHT22;2114;50.398;8.814;2022-08-01T13:11:13;37.70;56.20
4201;DHT22;2114;50.398;8.814;2022-08-01T13:16:16;37.00;56.30
4201;DHT22;2114;50.398;8.814;2022-08-01T13:21:19;36.20;56.80
4201;DHT22;2114;50.398;8.814;2022-08-01T13:26:37;35.50;57.00
4201;DHT22;2114;50.398;8.814;2022-08-01T13:31:39;34.70;57.80
4201;DHT22;2114;50.398;8.814;2022-08-01T13:36:40;34.10;59.20
4201;DHT22;2114;50.398;8.814;2022-08-01T13:41:41;33.50;60.00
4201;DHT22;2114;50.398;8.814;2022-08-01T13:46:42;33.20;60.20
4201;DHT22;2114;50.398;8.814;2022-08-01T13:51:43;33.10;60.80
4201;DHT22;2114;50.398;8.814;2022-08-01T13:56:44;33.40;62.00
4201;DHT22;2114;50.398;8.814;2022-08-01T14:01:45;33.80;62.80
4201;DHT22;2114;50.398;8.814;2022-08-01T14:06:45;34.30;61.60
4201;DHT22;2114;50.398;8.814;2022-08-01T14:11:46;34.70;60.20
4201;DHT22;2114;50.398;8.814;2022-08-01T14:16:46;34.80;60.20
4201;DHT22;2114;50.398;8.814;2022-08-01T14:21:47;35.10;59.50
4201;DHT22;2114;50.398;8.814;2022-08-01T14:26:47;35.00;58.30
4201;DHT22;2114;50.398;8.814;2022-08-01T14:31:48;34.80;58.40
4201;DHT22;2114;50.398;8.814;2022-08-01T14:36:48;34.50;59.20
4201;DHT22;2114;50.398;8.814;2022-08-01T14:41:49;34.60;58.60
4201;DHT22;2114;50.398;8.814;2022-08-01T14:46:50;34.50;58.50
4201;DHT22;2114;50.398;8.814;2022-08-01T14:51:50;34.10;58.20
4201;DHT22;2114;50.398;8.814;2022-08-01T14:56:51;33.70;58.10
4201;DHT22;2114;50.398;8.814;2022-08-01T15:01:53;33.20;59.40
4201;DHT22;2114;50.398;8.814;2022-08-01T15:06:53;33.30;60.70
4201;DHT22;2114;50.398;8.814;2022-08-01T15:11:54;33.60;60.30
4201;DHT22;2114;50.398;8.814;2022-08-01T15:16:55;34.10;60.10
4201;DHT22;2114;50.398;8.814;2022-08-01T15:21:55;34.60;59.40
4201;DHT22;2114;50.398;8.814;2022-08-01T15:26:56;34.90;58.90
4201;DHT22;2114;50.398;8.814;2022-08-01T15:31:57;35.00;58.00
4201;DHT22;2114;50.398;8.814;2022-08-01T15:36:57;35.10;57.00
4201;DHT22;2114;50.398;8.814;2022-08-01T15:41:59;34.70;57.40
4201;DHT22;2114;50.398;8.814;2022-08-01T15:47:01;34.50;57.50
4201;DHT22;2114;50.398;8.814;2022-08-01T15:52:03;34.60;56.80
4201;DHT22;2114;50.398;8.814;2022-08-01T15:57:03;34.60;56.80
4201;DHT22;2114;50.398;8.814;2022-08-01T16:02:04;34.60;57.00
4201;DHT22;2114;50.398;8.814;2022-08-01T16:07:05;34.50;56.60
4201;DHT22;2114;50.398;8.814;2022-08-01T16:12:06;34.20;57.00
4201;DHT22;2114;50.398;8.814;2022-08-01T16:17:07;34.00;57.20
4201;DHT22;2114;50.398;8.814;2022-08-01T16:22:08;33.70;57.30
4201;DHT22;2114;50.398;8.814;2022-08-01T16:27:08;33.40;57.70
4201;DHT22;2114;50.398;8.814;2022-08-01T16:32:09;33.10;58.70
4201;DHT22;2114;50.398;8.814;2022-08-01T16:37:09;32.80;58.80
4201;DHT22;2114;50.398;8.814;2022-08-01T16:42:10;32.60;59.80
4201;DHT22;2114;50.398;8.814;2022-08-01T16:47:11;32.50;60.50
4201;DHT22;2114;50.398;8.814;2022-08-01T16:52:12;32.50;60.70
4201;DHT22;2114;50.398;8.814;2022-08-01T16:57:12;32.70;60.00
4201;DHT22;2114;50.398;8.814;2022-08-01T17:02:13;32.60;59.70
4201;DHT22;2114;50.398;8.814;2022-08-01T17:07:13;32.50;60.00
4201;DHT22;2114;50.398;8.814;2022-08-01T17:12:14;32.40;59.90
4201;DHT22;2114;50.398;8.814;2022-08-01T17:17:15;32.20;60.30
4201;DHT22;2114;50.398;8.814;2022-08-01T17:22:16;32.00;61.20
4201;DHT22;2114;50.398;8.814;2022-08-01T17:27:17;31.70;61.10
4201;DHT22;2114;50.398;8.814;2022-08-01T17:32:18;31.40;61.40
4201;DHT22;2114;50.398;8.814;2022-08-01T17:37:19;31.10;62.10
4201;DHT22;2114;50.398;8.814;2022-08-01T17:42:19;30.80;62.70
4201;DHT22;2114;50.398;8.814;2022-08-01T17:47:20;30.50;63.20
4201;DHT22;2114;50.398;8.814;2022-08-01T17:52:22;30.20;63.90
4201;DHT22;2114;50.398;8.814;2022-08-01T17:57:22;29.90;64.50
4201;DHT22;2114;50.398;8.814;2022-08-01T18:02:24;29.70;65.30
4201;DHT22;2114;50.398;8.814;2022-08-01T18:07:25;29.50;65.60
4201;DHT22;2114;50.398;8.814;2022-08-01T18:12:25;29.40;66.00
4201;DHT22;2114;50.398;8.814;2022-08-01T18:17:26;29.20;66.30
4201;DHT22;2114;50.398;8.814;2022-08-01T18:22:26;29.00;66.60
4201;DHT22;2114;50.398;8.814;2022-08-01T18:27:27;29.00;67.00
4201;DHT22;2114;50.398;8.814;2022-08-01T18:32:27;28.80;67.00
4201;DHT22;2114;50.398;8.814;2022-08-01T18:37:28;28.80;67.20
4201;DHT22;2114;50.398;8.814;2022-08-01T18:42:29;28.70;67.40
4201;DHT22;2114;50.398;8.814;2022-08-01T18:47:29;28.40;67.60
4201;DHT22;2114;50.398;8.814;2022-08-01T18:52:30;28.40;67.90
4201;DHT22;2114;50.398;8.814;2022-08-01T18:57:31;28.20;68.20
4201;DHT22;2114;50.398;8.814;2022-08-01T19:02:32;28.20;68.60
4201;DHT22;2114;50.398;8.814;2022-08-01T19:07:32;28.00;71.40
4201;DHT22;2114;50.398;8.814;2022-08-01T19:12:33;27.90;72.80
4201;DHT22;2114;50.398;8.814;2022-08-01T19:17:34;27.80;73.70
4201;DHT22;2114;50.398;8.814;2022-08-01T19:22:34;27.70;74.60
4201;DHT22;2114;50.398;8.814;2022-08-01T19:27:35;27.70;75.10
4201;DHT22;2114;50.398;8.814;2022-08-01T19:32:44;27.50;75.70
4201;DHT22;2114;50.398;8.814;2022-08-01T19:37:45;27.30;76.00
4201;DHT22;2114;50.398;8.814;2022-08-01T19:42:50;27.20;76.40
4201;DHT22;2114;50.398;8.814;2022-08-01T19:47:51;27.10;77.00
4201;DHT22;2114;50.398;8.814;2022-08-01T19:52:54;26.90;77.60
4201;DHT22;2114;50.398;8.814;2022-08-01T19:57:57;26.80;77.90
4201;DHT22;2114;50.398;8.814;2022-08-01T20:03:00;26.60;78.50
4201;DHT22;2114;50.398;8.814;2022-08-01T20:08:02;26.40;78.90
4201;DHT22;2114;50.398;8.814;2022-08-01T20:13:05;26.30;79.20
4201;DHT22;2114;50.398;8.814;2022-08-01T20:18:08;26.10;79.80
4201;DHT22;2114;50.398;8.814;2022-08-01T20:23:10;26.00;80.30
4201;DHT22;2114;50.398;8.814;2022-08-01T20:28:12;25.90;80.50
4201;DHT22;2114;50.398;8.814;2022-08-01T20:33:14;25.80;81.30
4201;DHT22;2114;50.398;8.814;2022-08-01T20:38:19;25.70;82.10
4201;DHT22;2114;50.398;8.814;2022-08-01T20:43:20;25.60;82.90
4201;DHT22;2114;50.398;8.814;2022-08-01T20:48:23;25.50;83.10
4201;DHT22;2114;50.398;8.814;2022-08-01T20:53:24;25.40;83.80
4201;DHT22;2114;50.398;8.814;2022-08-01T20:58:43;25.30;84.90
4201;DHT22;2114;50.398;8.814;2022-08-01T21:09:03;25.10;85.20
4201;DHT22;2114;50.398;8.814;2022-08-01T21:14:09;25.00;85.60
4201;DHT22;2114;50.398;8.814;2022-08-01T21:19:15;24.90;86.10
4201;DHT22;2114;50.398;8.814;2022-08-01T21:24:18;24.80;86.60
4201;DHT22;2114;50.398;8.814;2022-08-01T21:29:23;24.70;87.10
4201;DHT22;2114;50.398;8.814;2022-08-01T21:34:24;24.60;87.50
4201;DHT22;2114;50.398;8.814;2022-08-01T21:39:25;24.50;87.90
4201;DHT22;2114;50.398;8.814;2022-08-01T21:44:26;24.40;88.40
4201;DHT22;2114;50.398;8.814;2022-08-01T21:49:27;24.30;88.90
4201;DHT22;2114;50.398;8.814;2022-08-01T21:59:58;24.20;89.50
4201;DHT22;2114;50.398;8.814;2022-08-01T22:05:11;24.10;90.00
4201;DHT22;2114;50.398;8.814;2022-08-01T22:10:15;24.00;90.20
4201;DHT22;2114;50.398;8.814;2022-08-01T22:15:20;24.00;90.40
4201;DHT22;2114;50.398;8.814;2022-08-01T22:20:24;24.00;90.60
4201;DHT22;2114;50.398;8.814;2022-08-01T22:25:28;23.90;90.70
4201;DHT22;2114;50.398;8.814;2022-08-01T22:30:29;23.80;91.10
4201;DHT22;2114;50.398;8.814;2022-08-01T22:35:29;23.70;91.10
4201;DHT22;2114;50.398;8.814;2022-08-01T22:40:31;23.70;91.30
4201;DHT22;2114;50.398;8.814;2022-08-01T22:50:50;23.60;91.70
4201;DHT22;2114;50.398;8.814;2022-08-01T22:55:52;23.50;92.00
4201;DHT22;2114;50.398;8.814;2022-08-01T23:00:54;23.40;91.90
4201;DHT22;2114;50.398;8.814;2022-08-01T23:06:09;23.30;91.80
4201;DHT22;2114;50.398;8.814;2022-08-01T23:11:10;23.20;92.30
4201;DHT22;2114;50.398;8.814;2022-08-01T23:16:11;23.10;92.40
4201;DHT22;2114;50.398;8.814;2022-08-01T23:21:12;23.00;92.70
4201;DHT22;2114;50.398;8.814;2022-08-01T23:26:15;22.90;92.90
4201;DHT22;2114;50.398;8.814;2022-08-01T23:31:16;22.90;93.50
4201;DHT22;2114;50.398;8.814;2022-08-01T23:36:17;22.70;93.40
4201;DHT22;2114;50.398;8.814;2022-08-01T23:41:17;22.70;93.70
4201;DHT22;2114;50.398;8.814;2022-08-01T23:46:18;22.60;94.10
4201;DHT22;2114;50.398;8.814;2022-08-01T23:51:19;22.50;94.40
4201;DHT22;2114;50.398;8.814;2022-08-01T23:56:19;22.40;94.90
